sensor_id;sensor_type;location;lat;lon;timestamp;temperature;humidity
18207;DHT22;9229;52.354;20.886;2022-07-29T00:04:52;15.40;99.90
18207;DHT22;9229;52.354;20.886;2022-07-29T00:09:53;15.40;99.90
18207;DHT22;9229;52.354;20.886;2022-07-29T00:14:56;15.20;99.90
18207;DHT22;9229;52.354;20.886;2022-07-29T00:20:00;15.20;99.90
18207;DHT22;9229;52.354;20.886;2022-07-29T00:25:02;15.10;99.90
18207;DHT22;9229;52.354;20.886;2022-07-29T00:30:04;15.10;99.90
18207;DHT22;9229;52.354;20.886;2022-07-29T00:35:08;15.10;99.90
18207;DHT22;9229;52.354;20.886;2022-07-29T00:40:28;15.10;99.90
18207;DHT22;9229;52.354;20.886;2022-07-29T00:45:30;15.10;99.90
18207;DHT22;9229;52.354;20.886;2022-07-29T00:50:33;15.10;99.90
18207;DHT22;9229;52.354;20.886;2022-07-29T00:55:35;15.00;99.90
18207;DHT22;9229;52.354;20.886;2022-07-29T01:00:37;15.10;99.90
18207;DHT22;9229;52.354;20.886;2022-07-29T01:05:44;15.10;99.90
18207;DHT22;9229;52.354;20.886;2022-07-29T01:10:47;15.00;99.90
18207;DHT22;9229;52.354;20.886;2022-07-29T01:15:54;14.90;99.90
18207;DHT22;9229;52.354;20.886;2022-07-29T01:21:13;14.90;99.90
18207;DHT22;9229;52.354;20.886;2022-07-29T01:26:31;14.80;99.90
18207;DHT22;9229;52.354;20.886;2022-07-29T01:31:45;14.70;99.90
18207;DHT22;9229;52.354;20.886;2022-07-29T01:36:51;14.60;99.90
18207;DHT22;9229;52.354;20.886;2022-07-29T01:42:00;14.60;99.90
18207;DHT22;9229;52.354;20.886;2022-07-29T01:47:12;14.50;99.90
18207;DHT22;9229;52.354;20.886;2022-07-29T01:52:20;14.50;99.90
18207;DHT22;9229;52.354;20.886;2022-07-29T01:57:26;14.50;99.90
18207;DHT22;9229;52.354;20.886;2022-07-29T02:02:31;14.40;99.90
18207;DHT22;9229;52.354;20.886;2022-07-29T02:07:34;14.30;99.90
18207;DHT22;9229;52.354;20.886;2022-07-29T02:12:39;14.30;99.90
18207;DHT22;9229;52.354;20.886;2022-07-29T02:17:45;14.30;99.90
18207;DHT22;9229;52.354;20.886;2022-07-29T02:22:48;14.20;99.90
18207;DHT22;9229;52.354;20.886;2022-07-29T02:27:52;14.10;99.90
18207;DHT22;9229;52.354;20.886;2022-07-29T02:32:56;14.10;99.90
18207;DHT22;9229;52.354;20.886;2022-07-29T02:37:59;14.00;99.90
18207;DHT22;9229;52.354;20.886;2022-07-29T02:43:19;13.90;99.90
18207;DHT22;9229;52.354;20.886;2022-07-29T02:48:29;13.90;99.90
18207;DHT22;9229;52.354;20.886;2022-07-29T02:53:33;13.90;99.90
18207;DHT22;9229;52.354;20.886;2022-07-29T02:58:39;13.90;99.90
18207;DHT22;9229;52.354;20.886;2022-07-29T03:03:44;13.80;99.90
18207;DHT22;9229;52.354;20.886;2022-07-29T03:08:47;13.80;99.90
18207;DHT22;9229;52.354;20.886;2022-07-29T03:13:49;13.80;99.90
18207;DHT22;9229;52.354;20.886;2022-07-29T03:18:53;13.80;99.90
18207;DHT22;9229;52.354;20.886;2022-07-29T03:23:55;13.90;99.90
18207;DHT22;9229;52.354;20.886;2022-07-29T03:28:57;13.90;99.90
18207;DHT22;9229;52.354;20.886;2022-07-29T03:34:00;13.90;99.90
18207;DHT22;9229;52.354;20.886;2022-07-29T03:39:03;14.00;99.90
18207;DHT22;9229;52.354;20.886;2022-07-29T03:44:06;14.00;99.90
18207;DHT22;9229;52.354;20.886;2022-07-29T03:49:11;14.10;99.90
18207;DHT22;9229;52.354;20.886;2022-07-29T03:54:14;14.10;99.90
18207;DHT22;9229;52.354;20.886;2022-07-29T03:59:17;14.30;99.90
18207;DHT22;9229;52.354;20.886;2022-07-29T04:04:21;14.40;99.90
18207;DHT22;9229;52.354;20.886;2022-07-29T04:09:23;14.50;99.90
18207;DHT22;9229;52.354;20.886;2022-07-29T04:14:25;14.60;99.90
18207;DHT22;9229;52.354;20.886;2022-07-29T04:19:28;14.70;99.90
18207;DHT22;9229;52.354;20.886;2022-07-29T04:24:30;14.80;99.90
18207;DHT22;9229;52.354;20.886;2022-07-29T04:29:32;15.00;99.90
18207;DHT22;9229;52.354;20.886;2022-07-29T04:34:35;15.10;99.90
18207;DHT22;9229;52.354;20.886;2022-07-29T04:39:37;15.10;99.90
18207;DHT22;9229;52.354;20.886;2022-07-29T04:44:39;15.30;99.90
18207;DHT22;9229;52.354;20.886;2022-07-29T04:49:42;15.40;99.90
18207;DHT22;9229;52.354;20.886;2022-07-29T04:54:44;15.50;99.90
18207;DHT22;9229;52.354;20.886;2022-07-29T04:59:46;15.60;99.90
18207;DHT22;9229;52.354;20.886;2022-07-29T05:04:49;15.80;99.90
18207;DHT22;9229;52.354;20.886;2022-07-29T05:09:51;15.90;99.90
18207;DHT22;9229;52.354;20.886;2022-07-29T05:14:53;16.10;99.90
18207;DHT22;9229;52.354;20.886;2022-07-29T05:19:56;16.30;99.90
18207;DHT22;9229;52.354;20.886;2022-07-29T05:24:58;16.50;99.90
18207;DHT22;9229;52.354;20.886;2022-07-29T05:30:00;16.80;99.90
18207;DHT22;9229;52.354;20.886;2022-07-29T05:35:06;17.40;99.90
18207;DHT22;9229;52.354;20.886;2022-07-29T05:40:09;18.10;99.90
18207;DHT22;9229;52.354;20.886;2022-07-29T05:45:11;18.80;99.90
18207;DHT22;9229;52.354;20.886;2022-07-29T05:50:15;19.60;99.90
18207;DHT22;9229;52.354;20.886;2022-07-29T05:55:16;20.20;99.90
18207;DHT22;9229;52.354;20.886;2022-07-29T06:00:18;20.90;99.90
18207;DHT22;9229;52.354;20.886;2022-07-29T06:05:21;21.50;99.90
18207;DHT22;9229;52.354;20.886;2022-07-29T06:10:23;22.00;99.90
18207;DHT22;9229;52.354;20.886;2022-07-29T06:15:26;22.50;99.90
18207;DHT22;9229;52.354;20.886;2022-07-29T06:20:29;23.10;99.90
18207;DHT22;9229;52.354;20.886;2022-07-29T06:25:31;23.60;99.90
18207;DHT22;9229;52.354;20.886;2022-07-29T06:30:35;24.20;99.90
18207;DHT22;9229;52.354;20.886;2022-07-29T06:35:38;24.80;99.90
18207;DHT22;9229;52.354;20.886;2022-07-29T06:40:42;25.60;97.20
18207;DHT22;9229;52.354;20.886;2022-07-29T06:46:06;26.50;94.00
18207;DHT22;9229;52.354;20.886;2022-07-29T06:51:10;26.80;91.10
18207;DHT22;9229;52.354;20.886;2022-07-29T06:56:12;27.20;87.50
18207;DHT22;9229;52.354;20.886;2022-07-29T07:01:14;27.60;83.20
18207;DHT22;9229;52.354;20.886;2022-07-29T07:06:18;28.00;82.40
18207;DHT22;9229;52.354;20.886;2022-07-29T07:11:20;28.50;77.00
18207;DHT22;9229;52.354;20.886;2022-07-29T07:16:21;29.00;74.60
18207;DHT22;9229;52.354;20.886;2022-07-29T07:21:24;29.30;73.00
18207;DHT22;9229;52.354;20.886;2022-07-29T07:26:27;29.80;71.10
18207;DHT22;9229;52.354;20.886;2022-07-29T07:31:28;30.00;66.70
18207;DHT22;9229;52.354;20.886;2022-07-29T07:36:31;30.10;67.10
18207;DHT22;9229;52.354;20.886;2022-07-29T07:41:33;30.80;65.90
18207;DHT22;9229;52.354;20.886;2022-07-29T07:46:35;31.10;63.90
18207;DHT22;9229;52.354;20.886;2022-07-29T07:51:39;31.50;63.40
18207;DHT22;9229;52.354;20.886;2022-07-29T07:56:41;32.10;59.20
18207;DHT22;9229;52.354;20.886;2022-07-29T08:01:42;32.20;58.20
18207;DHT22;9229;52.354;20.886;2022-07-29T08:06:46;32.40;58.20
18207;DHT22;9229;52.354;20.886;2022-07-29T08:11:50;32.60;57.10
18207;DHT22;9229;52.354;20.886;2022-07-29T08:16:52;33.10;56.70
18207;DHT22;9229;52.354;20.886;2022-07-29T08:21:55;33.00;55.80
18207;DHT22;9229;52.354;20.886;2022-07-29T08:26:57;33.50;54.20
18207;DHT22;9229;52.354;20.886;2022-07-29T08:31:59;34.10;52.90
18207;DHT22;9229;52.354;20.886;2022-07-29T08:37:02;34.60;52.00
18207;DHT22;9229;52.354;20.886;2022-07-29T08:42:05;35.10;52.00
18207;DHT22;9229;52.354;20.886;2022-07-29T08:47:07;35.80;50.80
18207;DHT22;9229;52.354;20.886;2022-07-29T08:52:11;35.50;49.30
18207;DHT22;9229;52.354;20.886;2022-07-29T08:57:14;34.40;49.20
18207;DHT22;9229;52.354;20.886;2022-07-29T09:02:19;34.80;49.20
18207;DHT22;9229;52.354;20.886;2022-07-29T09:07:23;34.20;50.60
18207;DHT22;9229;52.354;20.886;2022-07-29T09:12:25;34.90;48.90
18207;DHT22;9229;52.354;20.886;2022-07-29T09:17:42;35.90;47.60
18207;DHT22;9229;52.354;20.886;2022-07-29T09:22:45;36.70;44.80
18207;DHT22;9229;52.354;20.886;2022-07-29T09:27:50;36.20;46.30
18207;DHT22;9229;52.354;20.886;2022-07-29T09:32:57;36.50;44.90
18207;DHT22;9229;52.354;20.886;2022-07-29T09:38:11;34.70;45.20
18207;DHT22;9229;52.354;20.886;2022-07-29T09:43:13;34.60;46.80
18207;DHT22;9229;52.354;20.886;2022-07-29T09:48:16;33.90;46.40
18207;DHT22;9229;52.354;20.886;2022-07-29T09:53:33;34.90;45.50
18207;DHT22;9229;52.354;20.886;2022-07-29T09:58:36;36.60;43.10
18207;DHT22;9229;52.354;20.886;2022-07-29T10:03:51;36.50;43.50
18207;DHT22;9229;52.354;20.886;2022-07-29T10:09:07;36.60;43.10
18207;DHT22;9229;52.354;20.886;2022-07-29T10:14:09;35.80;42.80
18207;DHT22;9229;52.354;20.886;2022-07-29T10:19:12;35.40;43.30
18207;DHT22;9229;52.354;20.886;2022-07-29T10:24:16;35.10;43.60
18207;DHT22;9229;52.354;20.886;2022-07-29T10:29:19;34.60;44.70
18207;DHT22;9229;52.354;20.886;2022-07-29T10:34:31;34.20;44.40
18207;DHT22;9229;52.354;20.886;2022-07-29T10:39:47;33.60;45.40
18207;DHT22;9229;52.354;20.886;2022-07-29T10:44:54;33.40;46.70
18207;DHT22;9229;52.354;20.886;2022-07-29T10:50:00;34.20;45.40
18207;DHT22;9229;52.354;20.886;2022-07-29T10:55:05;35.70;43.50
18207;DHT22;9229;52.354;20.886;2022-07-29T11:00:30;37.60;41.40
18207;DHT22;9229;52.354;20.886;2022-07-29T11:05:54;38.20;39.50
18207;DHT22;9229;52.354;20.886;2022-07-29T11:17:02;38.40;37.70
18207;DHT22;9229;52.354;20.886;2022-07-29T11:22:08;37.10;39.40
18207;DHT22;9229;52.354;20.886;2022-07-29T11:27:12;37.00;39.80
18207;DHT22;9229;52.354;20.886;2022-07-29T11:32:16;37.00;37.70
18207;DHT22;9229;52.354;20.886;2022-07-29T11:37:21;36.40;38.40
18207;DHT22;9229;52.354;20.886;2022-07-29T11:42:45;36.30;39.80
18207;DHT22;9229;52.354;20.886;2022-07-29T11:47:51;35.70;40.10
18207;DHT22;9229;52.354;20.886;2022-07-29T11:52:53;35.50;40.10
18207;DHT22;9229;52.354;20.886;2022-07-29T11:57:57;36.60;39.40
18207;DHT22;9229;52.354;20.886;2022-07-29T12:03:03;37.60;38.90
18207;DHT22;9229;52.354;20.886;2022-07-29T12:08:11;38.10;37.80
18207;DHT22;9229;52.354;20.886;2022-07-29T12:13:15;39.30;35.80
18207;DHT22;9229;52.354;20.886;2022-07-29T12:18:20;38.50;37.30
18207;DHT22;9229;52.354;20.886;2022-07-29T12:23:21;38.60;36.80
18207;DHT22;9229;52.354;20.886;2022-07-29T12:28:23;40.10;33.90
18207;DHT22;9229;52.354;20.886;2022-07-29T12:33:28;40.30;33.00
18207;DHT22;9229;52.354;20.886;2022-07-29T12:38:30;40.00;34.20
18207;DHT22;9229;52.354;20.886;2022-07-29T12:43:32;39.10;35.40
18207;DHT22;9229;52.354;20.886;2022-07-29T12:48:36;37.60;37.70
18207;DHT22;9229;52.354;20.886;2022-07-29T12:53:39;36.40;38.60
18207;DHT22;9229;52.354;20.886;2022-07-29T12:58:41;35.20;38.40
18207;DHT22;9229;52.354;20.886;2022-07-29T13:03:48;34.20;40.10
18207;DHT22;9229;52.354;20.886;2022-07-29T13:09:03;33.40;40.90
18207;DHT22;9229;52.354;20.886;2022-07-29T13:14:06;32.80;41.40
18207;DHT22;9229;52.354;20.886;2022-07-29T13:19:11;32.20;43.10
18207;DHT22;9229;52.354;20.886;2022-07-29T13:24:13;31.90;43.00
18207;DHT22;9229;52.354;20.886;2022-07-29T13:29:15;31.90;43.50
18207;DHT22;9229;52.354;20.886;2022-07-29T13:34:18;32.00;42.80
18207;DHT22;9229;52.354;20.886;2022-07-29T13:39:22;32.60;41.90
18207;DHT22;9229;52.354;20.886;2022-07-29T13:44:24;33.70;40.10
18207;DHT22;9229;52.354;20.886;2022-07-29T13:49:27;35.10;38.70
18207;DHT22;9229;52.354;20.886;2022-07-29T13:54:29;36.30;37.20
18207;DHT22;9229;52.354;20.886;2022-07-29T13:59:31;36.70;37.00
18207;DHT22;9229;52.354;20.886;2022-07-29T14:04:35;36.30;36.70
18207;DHT22;9229;52.354;20.886;2022-07-29T14:09:36;34.70;37.30
18207;DHT22;9229;52.354;20.886;2022-07-29T14:14:38;32.70;39.60
18207;DHT22;9229;52.354;20.886;2022-07-29T14:19:41;31.40;42.00
18207;DHT22;9229;52.354;20.886;2022-07-29T14:24:43;30.80;41.80
18207;DHT22;9229;52.354;20.886;2022-07-29T14:29:45;30.10;43.90
18207;DHT22;9229;52.354;20.886;2022-07-29T14:34:48;29.40;44.60
18207;DHT22;9229;52.354;20.886;2022-07-29T14:39:50;29.10;46.10
18207;DHT22;9229;52.354;20.886;2022-07-29T14:44:51;29.10;47.60
18207;DHT22;9229;52.354;20.886;2022-07-29T14:49:55;29.20;47.80
18207;DHT22;9229;52.354;20.886;2022-07-29T14:54:56;28.90;47.30
18207;DHT22;9229;52.354;20.886;2022-07-29T14:59:58;28.60;47.50
18207;DHT22;9229;52.354;20.886;2022-07-29T15:05:01;27.90;47.70
18207;DHT22;9229;52.354;20.886;2022-07-29T15:10:04;27.40;48.00
18207;DHT22;9229;52.354;20.886;2022-07-29T15:15:06;27.00;48.60
18207;DHT22;9229;52.354;20.886;2022-07-29T15:20:11;26.60;49.90
18207;DHT22;9229;52.354;20.886;2022-07-29T15:25:12;26.50;49.90
18207;DHT22;9229;52.354;20.886;2022-07-29T15:30:14;26.30;49.00
18207;DHT22;9229;52.354;20.886;2022-07-29T15:35:18;26.20;50.30
18207;DHT22;9229;52.354;20.886;2022-07-29T15:40:20;26.10;50.50
18207;DHT22;9229;52.354;20.886;2022-07-29T15:45:22;26.00;51.70
18207;DHT22;9229;52.354;20.886;2022-07-29T15:50:25;25.90;51.70
18207;DHT22;9229;52.354;20.886;2022-07-29T15:55:27;25.90;51.90
18207;DHT22;9229;52.354;20.886;2022-07-29T16:00:29;25.90;52.30
18207;DHT22;9229;52.354;20.886;2022-07-29T16:05:32;25.90;52.10
18207;DHT22;9229;52.354;20.886;2022-07-29T16:10:34;25.80;52.40
18207;DHT22;9229;52.354;20.886;2022-07-29T16:15:35;25.60;52.50
18207;DHT22;9229;52.354;20.886;2022-07-29T16:20:39;25.50;53.20
18207;DHT22;9229;52.354;20.886;2022-07-29T16:25:41;25.40;53.60
18207;DHT22;9229;52.354;20.886;2022-07-29T16:30:43;25.40;53.70
18207;DHT22;9229;52.354;20.886;2022-07-29T16:35:46;25.30;54.50
18207;DHT22;9229;52.354;20.886;2022-07-29T16:40:48;25.30;55.00
18207;DHT22;9229;52.354;20.886;2022-07-29T16:45:50;25.40;55.70
18207;DHT22;9229;52.354;20.886;2022-07-29T16:50:53;25.50;55.30
18207;DHT22;9229;52.354;20.886;2022-07-29T16:55:55;25.70;55.10
18207;DHT22;9229;52.354;20.886;2022-07-29T17:00:58;25.90;54.50
18207;DHT22;9229;52.354;20.886;2022-07-29T17:06:01;26.00;54.90
18207;DHT22;9229;52.354;20.886;2022-07-29T17:11:03;26.10;53.10
18207;DHT22;9229;52.354;20.886;2022-07-29T17:16:05;25.90;52.70
18207;DHT22;9229;52.354;20.886;2022-07-29T17:21:08;25.80;54.40
18207;DHT22;9229;52.354;20.886;2022-07-29T17:26:10;25.50;54.80
18207;DHT22;9229;52.354;20.886;2022-07-29T17:31:12;25.30;55.20
18207;DHT22;9229;52.354;20.886;2022-07-29T17:36:15;25.10;55.30
18207;DHT22;9229;52.354;20.886;2022-07-29T17:41:26;25.00;55.90
18207;DHT22;9229;52.354;20.886;2022-07-29T17:46:28;24.90;56.40
18207;DHT22;9229;52.354;20.886;2022-07-29T17:51:32;24.80;56.60
18207;DHT22;9229;52.354;20.886;2022-07-29T17:56:34;24.70;57.40
18207;DHT22;9229;52.354;20.886;2022-07-29T18:01:36;24.50;57.80
18207;DHT22;9229;52.354;20.886;2022-07-29T18:06:40;24.30;58.00
18207;DHT22;9229;52.354;20.886;2022-07-29T18:11:42;24.10;58.70
18207;DHT22;9229;52.354;20.886;2022-07-29T18:16:45;23.90;58.90
18207;DHT22;9229;52.354;20.886;2022-07-29T18:21:48;23.70;59.40
18207;DHT22;9229;52.354;20.886;2022-07-29T18:26:50;23.40;60.00
18207;DHT22;9229;52.354;20.886;2022-07-29T18:31:52;23.20;60.70
18207;DHT22;9229;52.354;20.886;2022-07-29T18:36:55;23.00;61.10
18207;DHT22;9229;52.354;20.886;2022-07-29T18:41:57;22.80;62.10
18207;DHT22;9229;52.354;20.886;2022-07-29T18:46:59;22.60;62.20
18207;DHT22;9229;52.354;20.886;2022-07-29T18:52:02;22.30;62.90
18207;DHT22;9229;52.354;20.886;2022-07-29T18:57:05;22.10;63.60
18207;DHT22;9229;52.354;20.886;2022-07-29T19:02:06;21.90;64.60
18207;DHT22;9229;52.354;20.886;2022-07-29T19:07:10;21.60;65.20
18207;DHT22;9229;52.354;20.886;2022-07-29T19:12:11;21.40;65.80
18207;DHT22;9229;52.354;20.886;2022-07-29T19:17:13;21.20;66.40
18207;DHT22;9229;52.354;20.886;2022-07-29T19:22:16;21.00;66.60
18207;DHT22;9229;52.354;20.886;2022-07-29T19:27:18;20.80;66.70
18207;DHT22;9229;52.354;20.886;2022-07-29T19:32:20;20.60;66.50
18207;DHT22;9229;52.354;20.886;2022-07-29T19:37:23;20.40;66.60
18207;DHT22;9229;52.354;20.886;2022-07-29T19:42:25;20.30;66.80
18207;DHT22;9229;52.354;20.886;2022-07-29T19:47:27;20.10;67.00
18207;DHT22;9229;52.354;20.886;2022-07-29T19:52:30;20.00;67.10
18207;DHT22;9229;52.354;20.886;2022-07-29T19:57:32;19.90;67.70
18207;DHT22;9229;52.354;20.886;2022-07-29T20:02:34;19.80;67.80
18207;DHT22;9229;52.354;20.886;2022-07-29T20:07:38;19.70;68.00
18207;DHT22;9229;52.354;20.886;2022-07-29T20:12:40;19.50;68.10
18207;DHT22;9229;52.354;20.886;2022-07-29T20:17:42;19.40;68.40
18207;DHT22;9229;52.354;20.886;2022-07-29T20:22:45;19.30;68.60
18207;DHT22;9229;52.354;20.886;2022-07-29T20:27:46;19.20;68.80
18207;DHT22;9229;52.354;20.886;2022-07-29T20:32:51;19.20;69.80
18207;DHT22;9229;52.354;20.886;2022-07-29T20:37:54;19.10;69.20
18207;DHT22;9229;52.354;20.886;2022-07-29T20:42:56;19.00;69.70
18207;DHT22;9229;52.354;20.886;2022-07-29T20:47:58;18.90;70.10
18207;DHT22;9229;52.354;20.886;2022-07-29T20:53:02;18.80;70.50
18207;DHT22;9229;52.354;20.886;2022-07-29T20:58:04;18.80;71.00
18207;DHT22;9229;52.354;20.886;2022-07-29T21:03:05;18.70;71.60
18207;DHT22;9229;52.354;20.886;2022-07-29T21:08:09;18.60;72.00
18207;DHT22;9229;52.354;20.886;2022-07-29T21:13:11;18.50;72.30
18207;DHT22;9229;52.354;20.886;2022-07-29T21:18:13;18.40;72.60
18207;DHT22;9229;52.354;20.886;2022-07-29T21:23:28;18.30;73.00
18207;DHT22;9229;52.354;20.886;2022-07-29T21:28:30;18.20;73.40
18207;DHT22;9229;52.354;20.886;2022-07-29T21:33:39;18.20;73.90
18207;DHT22;9229;52.354;20.886;2022-07-29T21:38:42;18.10;74.10
18207;DHT22;9229;52.354;20.886;2022-07-29T21:43:44;18.00;74.50
18207;DHT22;9229;52.354;20.886;2022-07-29T21:48:46;17.90;74.80
18207;DHT22;9229;52.354;20.886;2022-07-29T21:53:49;17.90;75.40
18207;DHT22;9229;52.354;20.886;2022-07-29T21:58:52;17.80;75.80
18207;DHT22;9229;52.354;20.886;2022-07-29T22:03:53;17.80;76.10
18207;DHT22;9229;52.354;20.886;2022-07-29T22:08:57;17.80;76.30
18207;DHT22;9229;52.354;20.886;2022-07-29T22:13:59;17.80;76.50
18207;DHT22;9229;52.354;20.886;2022-07-29T22:19:07;17.80;76.60
18207;DHT22;9229;52.354;20.886;2022-07-29T22:24:30;17.80;76.40
18207;DHT22;9229;52.354;20.886;2022-07-29T22:29:47;17.80;76.60
18207;DHT22;9229;52.354;20.886;2022-07-29T22:34:49;17.80;76.60
18207;DHT22;9229;52.354;20.886;2022-07-29T22:39:53;17.80;76.60
18207;DHT22;9229;52.354;20.886;2022-07-29T22:44:55;17.80;76.70
18207;DHT22;9229;52.354;20.886;2022-07-29T22:49:57;17.90;77.00
18207;DHT22;9229;52.354;20.886;2022-07-29T22:55:00;17.80;77.00
18207;DHT22;9229;52.354;20.886;2022-07-29T23:00:03;17.80;77.20
18207;DHT22;9229;52.354;20.886;2022-07-29T23:05:06;17.70;77.80
18207;DHT22;9229;52.354;20.886;2022-07-29T23:10:09;17.60;78.20
18207;DHT22;9229;52.354;20.886;2022-07-29T23:15:11;17.70;78.30
18207;DHT22;9229;52.354;20.886;2022-07-29T23:20:13;17.60;78.40
18207;DHT22;9229;52.354;20.886;2022-07-29T23:25:16;17.70;78.50
18207;DHT22;9229;52.354;20.886;2022-07-29T23:30:18;17.60;78.40
18207;DHT22;9229;52.354;20.886;2022-07-29T23:35:20;17.60;78.60
18207;DHT22;9229;52.354;20.886;2022-07-29T23:40:24;17.50;79.00
18207;DHT22;9229;52.354;20.886;2022-07-29T23:45:25;17.50;79.40
18207;DHT22;9229;52.354;20.886;2022-07-29T23:50:27;17.50;79.60
18207;DHT22;9229;52.354;20.886;2022-07-29T23:55:30;17.40;80.00
